Time;durP1;ratioP1;P1;durP2;ratioP2;P2;SDS_P1;SDS_P2;PMS_P1;PMS_P2;Temp;Humidity;BMP_temperature;BMP_pressure;BME280_temperature;BME280_humidity;BME280_pressure;Samples;Min_cycle;Max_cycle;Signal;HPM_P1;HPM_P2
2022/11/16 00:01:09;;;;;;;10.35;7.15;;;;;;;;;;5006291;28;20571;-67
2022/11/16 00:03:35;;;;;;;8.63;6.80;;;;;;;;;;5012724;28;20187;-68
2022/11/16 00:06:05;;;;;;;7.80;7.00;;;;;;;;;;5014091;28;20472;-68
2022/11/16 00:08:33;;;;;;;12.30;7.10;;;;;;;;;;5010337;28;20187;-68
2022/11/16 00:11:13;;;;;;;10.05;7.60;;;;;;;;;;5009890;28;20179;-68
2022/11/16 00:13:39;;;;;;;11.05;7.65;;;;;;;;;;5017093;28;20179;-68
2022/11/16 00:16:06;;;;;;;10.20;8.00;;;;;;;;;;5030122;28;20202;-68
2022/11/16 00:18:32;;;;;;;14.57;8.45;;;;;;;;;;5023461;28;20201;-68
2022/11/16 00:20:57;;;;;;;10.02;7.82;;;;;;;;;;5025944;28;20182;-68
2022/11/16 00:23:23;;;;;;;11.38;8.70;;;;;;;;;;5020639;28;20197;-68
2022/11/16 00:25:49;;;;;;;12.98;8.35;;;;;;;;;;5017724;28;20174;-68
2022/11/16 00:28:15;;;;;;;10.63;8.90;;;;;;;;;;5019800;28;20213;-68
2022/11/16 00:30:41;;;;;;;13.77;9.10;;;;;;;;;;5022538;28;20182;-68
2022/11/16 00:33:07;;;;;;;12.55;9.35;;;;;;;;;;5026578;28;20210;-68
2022/11/16 00:35:38;;;;;;;13.30;9.48;;;;;;;;;;5022615;28;20263;-69
2022/11/16 00:38:03;;;;;;;11.95;9.63;;;;;;;;;;5019881;28;20182;-69
2022/11/16 00:40:29;;;;;;;13.98;10.13;;;;;;;;;;5020817;28;20191;-68
2022/11/16 00:42:54;;;;;;;13.07;10.00;;;;;;;;;;5020311;28;20182;-69
2022/11/16 00:45:19;;;;;;;15.10;10.75;;;;;;;;;;5024479;28;20408;-68
2022/11/16 00:47:45;;;;;;;14.10;10.95;;;;;;;;;;5022253;28;20175;-68
2022/11/16 00:50:10;;;;;;;13.32;10.55;;;;;;;;;;5016799;28;20613;-69
2022/11/16 00:52:35;;;;;;;15.50;11.20;;;;;;;;;;5015379;28;20187;-68
2022/11/16 00:55:01;;;;;;;15.90;11.00;;;;;;;;;;5017008;28;20619;-68
2022/11/16 00:57:26;;;;;;;16.23;11.48;;;;;;;;;;5012313;28;20183;-68
2022/11/16 00:59:51;;;;;;;17.25;11.73;;;;;;;;;;5015961;28;20213;-69
2022/11/16 01:02:16;;;;;;;17.05;12.00;;;;;;;;;;5026523;28;20232;-68
2022/11/16 01:04:42;;;;;;;14.90;11.60;;;;;;;;;;5019532;28;20190;-68
2022/11/16 01:07:07;;;;;;;13.73;11.10;;;;;;;;;;5021967;28;20225;-69
2022/11/16 01:09:33;;;;;;;17.08;11.73;;;;;;;;;;5019180;28;20190;-68
2022/11/16 01:12:11;;;;;;;13.20;10.15;;;;;;;;;;5026144;28;20220;-69
2022/11/16 01:14:42;;;;;;;14.98;11.40;;;;;;;;;;5019966;28;20201;-69
2022/11/16 01:17:07;;;;;;;17.25;11.70;;;;;;;;;;5020812;28;20182;-69
2022/11/16 01:19:33;;;;;;;16.63;11.15;;;;;;;;;;5021381;28;20724;-70
2022/11/16 01:21:59;;;;;;;14.88;12.02;;;;;;;;;;5022116;28;20186;-70
2022/11/16 01:24:25;;;;;;;15.73;11.55;;;;;;;;;;5018290;28;20178;-70
2022/11/16 01:26:55;;;;;;;13.77;11.02;;;;;;;;;;5008699;28;20211;-70
2022/11/16 01:29:21;;;;;;;15.38;10.93;;;;;;;;;;5018741;28;20181;-70
2022/11/16 01:31:46;;;;;;;14.43;10.45;;;;;;;;;;5014042;28;20214;-70
2022/11/16 01:34:12;;;;;;;14.52;10.73;;;;;;;;;;5020010;28;20312;-70
2022/11/16 01:36:37;;;;;;;14.20;10.38;;;;;;;;;;5024784;28;20610;-70
2022/11/16 01:39:04;;;;;;;13.32;10.32;;;;;;;;;;5022202;28;20220;-70
2022/11/16 01:41:29;;;;;;;14.18;10.43;;;;;;;;;;5027270;28;20686;-69
2022/11/16 01:44:21;;;;;;;13.50;10.23;;;;;;;;;;5022141;28;20224;-69
2022/11/16 01:46:46;;;;;;;15.05;10.55;;;;;;;;;;5020818;28;20292;-69
2022/11/16 01:49:15;;;;;;;16.13;10.73;;;;;;;;;;5019250;28;20261;-69
2022/11/16 01:51:46;;;;;;;18.30;10.60;;;;;;;;;;5020718;28;20182;-69
2022/11/16 01:54:12;;;;;;;16.13;10.65;;;;;;;;;;5012514;28;20680;-69
2022/11/16 01:56:40;;;;;;;13.05;10.00;;;;;;;;;;5023320;28;20308;-69
2022/11/16 01:59:06;;;;;;;15.10;10.57;;;;;;;;;;5012235;28;20256;-69
2022/11/16 02:01:31;;;;;;;14.05;10.52;;;;;;;;;;5021767;28;20289;-69
2022/11/16 02:03:57;;;;;;;16.02;10.63;;;;;;;;;;5026065;28;20228;-69
2022/11/16 02:06:25;;;;;;;15.55;10.90;;;;;;;;;;5016389;28;20190;-70
2022/11/16 02:12:34;;;;;;;14.38;10.32;;;;;;;;;;5022868;28;20265;-69
2022/11/16 02:15:06;;;;;;;14.45;10.40;;;;;;;;;;5016834;28;20202;-69
2022/11/16 02:18:02;;;;;;;15.25;10.68;;;;;;;;;;5012663;28;20190;-69
2022/11/16 02:20:54;;;;;;;12.18;9.93;;;;;;;;;;5019559;28;20183;-69
2022/11/16 02:23:57;;;;;;;12.35;10.07;;;;;;;;;;5025300;28;20594;-69
2022/11/16 02:26:25;;;;;;;17.70;10.73;;;;;;;;;;5018841;28;20589;-69
2022/11/16 02:29:27;;;;;;;15.18;10.45;;;;;;;;;;5012607;28;20186;-70
2022/11/16 02:32:05;;;;;;;17.80;10.82;;;;;;;;;;5009448;28;20206;-69
2022/11/16 02:34:37;;;;;;;13.45;9.80;;;;;;;;;;5016770;28;20229;-69
2022/11/16 02:37:04;;;;;;;16.88;10.95;;;;;;;;;;5023021;28;20200;-70
2022/11/16 02:39:32;;;;;;;14.32;9.75;;;;;;;;;;5021378;28;20198;-70
2022/11/16 02:41:59;;;;;;;17.60;10.57;;;;;;;;;;5021139;28;20664;-70
2022/11/16 02:44:30;;;;;;;15.80;10.30;;;;;;;;;;5012853;28;20190;-70
2022/11/16 02:47:01;;;;;;;14.15;10.50;;;;;;;;;;5022225;28;20620;-70
2022/11/16 02:49:30;;;;;;;15.45;10.18;;;;;;;;;;5019634;28;20196;-70
2022/11/16 02:51:56;;;;;;;19.60;10.85;;;;;;;;;;5020956;28;20472;-70
2022/11/16 02:54:23;;;;;;;20.45;11.32;;;;;;;;;;5026206;28;20196;-71
2022/11/16 02:57:01;;;;;;;17.95;10.90;;;;;;;;;;5028340;28;20198;-70
2022/11/16 02:59:41;;;;;;;13.18;9.35;;;;;;;;;;5019358;28;20198;-71
2022/11/16 03:02:25;;;;;;;15.48;10.35;;;;;;;;;;5022877;28;21495;-70
2022/11/16 03:05:19;;;;;;;15.90;10.85;;;;;;;;;;5023825;28;20178;-71
2022/11/16 03:07:50;;;;;;;18.05;10.40;;;;;;;;;;5017272;28;20217;-71
2022/11/16 03:11:58;;;;;;;17.73;11.27;;;;;;;;;;5021252;28;20887;-69
2022/11/16 03:13:05;;;;;;;15.68;10.80;;;;;;;;;;5025597;28;20270;-70
2022/11/16 03:15:32;;;;;;;19.35;11.80;;;;;;;;;;5020218;28;20198;-71
2022/11/16 03:17:59;;;;;;;18.30;11.27;;;;;;;;;;5014273;28;20198;-70
2022/11/16 03:20:28;;;;;;;14.63;10.85;;;;;;;;;;5029222;28;20382;-71
2022/11/16 03:22:57;;;;;;;16.02;11.00;;;;;;;;;;5023349;28;20257;-71
2022/11/16 03:25:28;;;;;;;17.42;10.55;;;;;;;;;;5014699;28;20183;-71
2022/11/16 03:28:33;;;;;;;13.60;10.57;;;;;;;;;;5021198;28;20182;-70
2022/11/16 03:31:03;;;;;;;15.13;10.63;;;;;;;;;;5021640;28;20611;-70
2022/11/16 03:33:32;;;;;;;15.57;11.13;;;;;;;;;;5025920;28;20576;-70
2022/11/16 03:36:02;;;;;;;17.02;11.63;;;;;;;;;;5020040;28;20220;-69
2022/11/16 03:38:29;;;;;;;20.02;11.60;;;;;;;;;;5020277;28;20214;-69
2022/11/16 03:41:01;;;;;;;14.85;11.35;;;;;;;;;;5022367;28;20622;-69
2022/11/16 03:43:27;;;;;;;15.02;11.35;;;;;;;;;;5019663;28;20271;-69
2022/11/16 03:45:53;;;;;;;14.95;11.38;;;;;;;;;;5020428;28;20206;-70
2022/11/16 03:48:18;;;;;;;17.33;11.82;;;;;;;;;;5012204;28;20281;-69
2022/11/16 03:50:45;;;;;;;20.85;12.43;;;;;;;;;;5011647;28;20200;-69
2022/11/16 03:53:10;;;;;;;17.77;13.02;;;;;;;;;;5020264;28;20183;-69
2022/11/16 03:55:36;;;;;;;24.85;13.00;;;;;;;;;;5024200;28;20221;-69
2022/11/16 03:58:02;;;;;;;21.75;13.63;;;;;;;;;;5026270;28;20237;-69
2022/11/16 04:00:27;;;;;;;24.45;14.13;;;;;;;;;;5020161;28;20182;-70
2022/11/16 04:02:52;;;;;;;20.13;13.68;;;;;;;;;;5022774;28;20526;-69
2022/11/16 04:24:38;;;;;;;19.98;14.07;;;;;;;;;;5025106;28;20189;-69
2022/11/16 04:29:54;;;;;;;23.60;14.90;;;;;;;;;;5020996;28;20224;-69
2022/11/16 04:37:51;;;;;;;22.42;14.88;;;;;;;;;;5014373;28;20681;-69
2022/11/16 04:40:18;;;;;;;24.88;15.65;;;;;;;;;;5014165;28;20182;-69
2022/11/16 04:42:56;;;;;;;24.15;15.40;;;;;;;;;;5023532;28;20528;-70
2022/11/16 04:48:08;;;;;;;28.38;16.75;;;;;;;;;;5017287;28;20216;-69
2022/11/16 04:50:34;;;;;;;27.65;17.02;;;;;;;;;;5020494;28;20186;-70
2022/11/16 04:53:00;;;;;;;28.27;15.55;;;;;;;;;;5014942;28;20210;-70
2022/11/16 04:55:25;;;;;;;25.00;16.45;;;;;;;;;;5019392;28;20264;-70
2022/11/16 04:57:51;;;;;;;24.80;17.30;;;;;;;;;;5020308;28;20183;-70
2022/11/16 05:00:17;;;;;;;23.27;16.85;;;;;;;;;;5022122;28;20256;-69
2022/11/16 05:02:42;;;;;;;31.77;18.88;;;;;;;;;;5013429;28;20252;-70
2022/11/16 05:05:08;;;;;;;27.23;18.13;;;;;;;;;;5028207;28;20174;-70
2022/11/16 05:07:34;;;;;;;28.83;18.42;;;;;;;;;;5016996;28;20222;-69
2022/11/16 05:09:59;;;;;;;31.20;18.80;;;;;;;;;;5016886;28;20178;-69
2022/11/16 05:12:26;;;;;;;28.13;18.85;;;;;;;;;;5020858;28;20673;-70
2022/11/16 05:14:53;;;;;;;32.15;20.05;;;;;;;;;;5021185;28;20184;-70
2022/11/16 05:17:19;;;;;;;27.88;19.25;;;;;;;;;;5017935;28;20170;-70
2022/11/16 05:22:28;;;;;;;33.83;21.02;;;;;;;;;;5025181;28;20223;-71
2022/11/16 05:24:54;;;;;;;27.67;18.58;;;;;;;;;;5021607;28;20174;-71
2022/11/16 05:27:23;;;;;;;34.30;20.85;;;;;;;;;;5024560;28;20186;-71
2022/11/16 05:29:49;;;;;;;31.95;20.33;;;;;;;;;;5009349;28;20199;-71
2022/11/16 05:32:15;;;;;;;23.33;17.33;;;;;;;;;;5012775;28;20221;-71
2022/11/16 05:34:41;;;;;;;29.27;19.13;;;;;;;;;;5030498;28;20465;-71
2022/11/16 05:37:08;;;;;;;27.92;19.83;;;;;;;;;;5012073;28;20199;-71
2022/11/16 05:39:33;;;;;;;31.83;20.27;;;;;;;;;;5014520;28;20178;-71
2022/11/16 05:41:59;;;;;;;32.00;20.95;;;;;;;;;;5018554;28;20257;-71
2022/11/16 05:44:25;;;;;;;31.27;19.80;;;;;;;;;;5010092;28;20661;-71
2022/11/16 05:46:51;;;;;;;27.25;19.65;;;;;;;;;;5008873;28;20175;-71
2022/11/16 05:49:17;;;;;;;27.20;19.95;;;;;;;;;;5008439;28;20224;-71
2022/11/16 05:51:44;;;;;;;26.63;19.50;;;;;;;;;;5013670;28;20545;-70
2022/11/16 05:54:18;;;;;;;25.50;19.17;;;;;;;;;;5017788;28;20171;-69
2022/11/16 05:56:45;;;;;;;27.00;18.73;;;;;;;;;;5026073;28;20430;-70
2022/11/16 05:59:15;;;;;;;27.10;19.98;;;;;;;;;;5012922;28;20320;-70
2022/11/16 06:01:40;;;;;;;26.48;18.30;;;;;;;;;;5016936;28;20191;-69
2022/11/16 06:04:06;;;;;;;23.17;18.48;;;;;;;;;;5018961;28;20182;-70
2022/11/16 06:06:31;;;;;;;28.73;19.85;;;;;;;;;;5012074;28;20190;-69
2022/11/16 06:08:56;;;;;;;28.38;20.55;;;;;;;;;;5025375;28;20229;-70
2022/11/16 06:11:22;;;;;;;26.60;19.08;;;;;;;;;;5015790;28;20321;-70
2022/11/16 06:13:48;;;;;;;28.60;20.45;;;;;;;;;;5015652;28;20190;-70
2022/11/16 06:16:13;;;;;;;28.92;19.83;;;;;;;;;;5013878;28;20202;-69
2022/11/16 06:18:41;;;;;;;28.40;20.35;;;;;;;;;;5011987;28;20187;-69
2022/11/16 06:21:07;;;;;;;31.13;20.60;;;;;;;;;;5010265;28;20245;-69
2022/11/16 06:23:33;;;;;;;28.88;20.58;;;;;;;;;;5022963;28;20179;-70
2022/11/16 06:25:59;;;;;;;27.40;19.67;;;;;;;;;;5012892;28;20654;-69
2022/11/16 06:28:25;;;;;;;31.73;20.65;;;;;;;;;;5027039;28;20232;-69
2022/11/16 06:30:51;;;;;;;27.85;19.20;;;;;;;;;;5030126;28;20188;-69
2022/11/16 06:33:16;;;;;;;28.17;18.85;;;;;;;;;;5026829;28;20210;-69
2022/11/16 06:35:42;;;;;;;26.52;19.30;;;;;;;;;;5024311;28;20233;-69
2022/11/16 06:38:07;;;;;;;27.00;19.55;;;;;;;;;;5024743;28;20175;-69
2022/11/16 06:40:33;;;;;;;29.95;20.55;;;;;;;;;;5014818;28;20222;-69
2022/11/16 06:42:58;;;;;;;31.65;21.67;;;;;;;;;;5023886;28;20198;-70
2022/11/16 06:45:25;;;;;;;28.30;21.13;;;;;;;;;;5019802;28;20565;-71
2022/11/16 06:47:50;;;;;;;25.25;20.13;;;;;;;;;;5010213;28;20195;-71
2022/11/16 06:50:18;;;;;;;24.25;17.83;;;;;;;;;;5019315;28;20178;-71
2022/11/16 06:52:45;;;;;;;24.45;19.63;;;;;;;;;;5019721;28;20182;-71
2022/11/16 06:55:11;;;;;;;21.73;15.57;;;;;;;;;;5013131;28;20198;-72
2022/11/16 06:57:36;;;;;;;19.00;15.48;;;;;;;;;;5021825;28;20594;-71
2022/11/16 07:00:03;;;;;;;15.52;12.57;;;;;;;;;;5010958;28;20514;-70
2022/11/16 07:02:29;;;;;;;14.80;12.95;;;;;;;;;;5016063;28;20175;-70
2022/11/16 07:04:54;;;;;;;17.77;11.60;;;;;;;;;;5013226;28;20191;-70
2022/11/16 07:07:20;;;;;;;17.33;10.52;;;;;;;;;;5018368;28;20205;-68
2022/11/16 07:09:45;;;;;;;17.80;11.95;;;;;;;;;;5015807;28;20311;-67
2022/11/16 07:12:10;;;;;;;16.38;10.70;;;;;;;;;;5015311;28;20221;-67
2022/11/16 07:14:36;;;;;;;12.40;9.55;;;;;;;;;;5011386;28;20241;-67
2022/11/16 07:17:01;;;;;;;16.23;10.35;;;;;;;;;;4320286;28;10000807;-67
2022/11/16 07:19:26;;;;;;;14.55;11.07;;;;;;;;;;5017591;28;20186;-67
2022/11/16 07:21:53;;;;;;;14.93;10.95;;;;;;;;;;5008609;28;20191;-67
2022/11/16 07:24:19;;;;;;;14.02;9.77;;;;;;;;;;5010495;28;20233;-70
2022/11/16 07:26:44;;;;;;;10.40;7.90;;;;;;;;;;5017059;28;20283;-70
2022/11/16 07:29:09;;;;;;;13.45;8.20;;;;;;;;;;5008863;28;20171;-70
2022/11/16 07:31:35;;;;;;;10.32;8.15;;;;;;;;;;5009685;28;20210;-70
2022/11/16 07:34:00;;;;;;;10.60;8.32;;;;;;;;;;5011087;28;20313;-69
2022/11/16 07:36:25;;;;;;;11.20;8.32;;;;;;;;;;5012850;28;20301;-69
2022/11/16 07:38:51;;;;;;;10.68;6.95;;;;;;;;;;5014769;28;20182;-69
2022/11/16 07:41:18;;;;;;;12.07;7.63;;;;;;;;;;5018949;28;20190;-68
2022/11/16 07:43:43;;;;;;;11.60;8.63;;;;;;;;;;5011119;28;20193;-68
2022/11/16 07:46:11;;;;;;;9.05;7.00;;;;;;;;;;5013467;28;20178;-68
2022/11/16 07:48:37;;;;;;;11.52;7.07;;;;;;;;;;5018336;28;20643;-67
2022/11/16 07:51:05;;;;;;;10.63;6.82;;;;;;;;;;5019772;28;20240;-67
2022/11/16 07:53:31;;;;;;;14.40;6.70;;;;;;;;;;5026740;28;20638;-68
2022/11/16 07:55:56;;;;;;;11.73;8.13;;;;;;;;;;5022334;28;20243;-68
2022/11/16 07:58:22;;;;;;;11.20;7.85;;;;;;;;;;5020921;28;20555;-68
2022/11/16 08:00:47;;;;;;;12.85;8.32;;;;;;;;;;5023572;28;20623;-67
2022/11/16 08:03:13;;;;;;;11.35;7.55;;;;;;;;;;5020194;28;20174;-67
2022/11/16 08:05:39;;;;;;;11.68;6.45;;;;;;;;;;5012786;28;20183;-67
2022/11/16 08:08:05;;;;;;;11.45;6.38;;;;;;;;;;5019937;28;20716;-67
2022/11/16 08:10:30;;;;;;;8.52;5.68;;;;;;;;;;5016603;28;20217;-67
2022/11/16 08:12:56;;;;;;;8.00;5.30;;;;;;;;;;5021303;28;20615;-67
2022/11/16 08:15:22;;;;;;;11.98;5.80;;;;;;;;;;5015122;28;20204;-68
2022/11/16 08:17:48;;;;;;;7.30;4.72;;;;;;;;;;5019982;28;20585;-68
2022/11/16 08:20:14;;;;;;;7.57;5.53;;;;;;;;;;5021583;28;20170;-69
2022/11/16 08:22:39;;;;;;;10.98;5.88;;;;;;;;;;5018162;28;20252;-68
2022/11/16 08:25:05;;;;;;;8.88;6.53;;;;;;;;;;5018781;28;20211;-69
2022/11/16 08:27:32;;;;;;;9.68;6.35;;;;;;;;;;5020407;28;20185;-69
2022/11/16 08:29:57;;;;;;;10.10;6.65;;;;;;;;;;5014125;28;20179;-68
2022/11/16 08:32:23;;;;;;;9.00;6.55;;;;;;;;;;5011985;28;20205;-68
2022/11/16 08:34:48;;;;;;;11.93;8.43;;;;;;;;;;5015775;28;20222;-68
2022/11/16 08:37:13;;;;;;;13.93;9.23;;;;;;;;;;5018934;28;20209;-68
2022/11/16 08:39:39;;;;;;;15.50;9.55;;;;;;;;;;5025292;28;20634;-68
2022/11/16 08:42:04;;;;;;;14.88;9.88;;;;;;;;;;5022749;28;20549;-68
2022/11/16 08:44:29;;;;;;;13.70;10.50;;;;;;;;;;5023434;28;20182;-68
2022/11/16 08:46:55;;;;;;;18.88;10.15;;;;;;;;;;5018759;28;20210;-68
2022/11/16 08:49:20;;;;;;;16.48;9.90;;;;;;;;;;5025909;28;20307;-68
2022/11/16 08:51:45;;;;;;;15.00;10.60;;;;;;;;;;5017204;28;20210;-68
2022/11/16 08:54:11;;;;;;;16.90;10.20;;;;;;;;;;5017244;28;20273;-69
2022/11/16 08:56:36;;;;;;;17.15;10.13;;;;;;;;;;5015994;28;20521;-68
2022/11/16 08:59:02;;;;;;;13.82;8.90;;;;;;;;;;5019822;28;20528;-68
2022/11/16 09:01:29;;;;;;;13.50;8.43;;;;;;;;;;5022062;28;20287;-68
2022/11/16 09:03:55;;;;;;;11.25;7.70;;;;;;;;;;5026396;28;20201;-68
2022/11/16 09:06:21;;;;;;;16.33;8.27;;;;;;;;;;5017735;28;20182;-69
2022/11/16 09:08:47;;;;;;;10.45;6.72;;;;;;;;;;5027990;28;20338;-70
2022/11/16 09:11:15;;;;;;;15.63;7.25;;;;;;;;;;5021368;28;20312;-69
2022/11/16 09:13:42;;;;;;;12.73;6.70;;;;;;;;;;5025871;28;20186;-69
2022/11/16 09:16:08;;;;;;;10.55;5.35;;;;;;;;;;5012013;28;20210;-68
2022/11/16 09:18:34;;;;;;;10.35;5.10;;;;;;;;;;5023677;28;20606;-68
2022/11/16 09:20:59;;;;;;;10.70;5.28;;;;;;;;;;5014002;28;20182;-69
2022/11/16 09:23:25;;;;;;;9.40;5.15;;;;;;;;;;5019633;28;20209;-68
2022/11/16 09:25:50;;;;;;;9.20;4.55;;;;;;;;;;5013829;28;20180;-68
2022/11/16 09:28:16;;;;;;;12.98;4.50;;;;;;;;;;5024763;28;20239;-69
2022/11/16 09:30:44;;;;;;;13.30;4.93;;;;;;;;;;5006748;28;20340;-69
2022/11/16 09:33:09;;;;;;;8.82;4.70;;;;;;;;;;5020357;28;20510;-69
2022/11/16 09:35:34;;;;;;;15.57;5.03;;;;;;;;;;5024516;28;20542;-69
2022/11/16 09:38:00;;;;;;;9.50;4.20;;;;;;;;;;5022347;28;20178;-69
2022/11/16 09:40:32;;;;;;;12.63;4.43;;;;;;;;;;5016074;28;20229;-69
2022/11/16 09:43:18;;;;;;;10.07;4.72;;;;;;;;;;5007415;28;20182;-69
2022/11/16 09:46:12;;;;;;;15.27;5.18;;;;;;;;;;5007668;28;20182;-69
2022/11/16 09:48:39;;;;;;;14.05;4.38;;;;;;;;;;5013581;28;20245;-69
2022/11/16 09:51:07;;;;;;;10.05;4.75;;;;;;;;;;5021315;28;20182;-69
2022/11/16 09:53:52;;;;;;;9.23;4.07;;;;;;;;;;5023101;28;20201;-69
2022/11/16 09:56:22;;;;;;;8.23;4.35;;;;;;;;;;5013011;28;20592;-69
2022/11/16 09:59:08;;;;;;;8.65;4.15;;;;;;;;;;5027365;28;20896;-69
2022/11/16 10:01:48;;;;;;;8.98;4.03;;;;;;;;;;5027937;28;20217;-69
2022/11/16 10:04:35;;;;;;;12.80;4.40;;;;;;;;;;5028496;28;20186;-69
2022/11/16 10:07:07;;;;;;;10.02;4.22;;;;;;;;;;5027599;28;20272;-69
2022/11/16 10:09:33;;;;;;;10.80;3.80;;;;;;;;;;5026920;28;20194;-68
2022/11/16 10:12:42;;;;;;;15.85;4.15;;;;;;;;;;5015643;28;20192;-68
2022/11/16 10:15:29;;;;;;;12.50;4.35;;;;;;;;;;5011670;28;20281;-68
2022/11/16 10:18:07;;;;;;;10.95;3.78;;;;;;;;;;5021149;28;20251;-68
2022/11/16 10:20:58;;;;;;;12.73;4.53;;;;;;;;;;5014958;28;20665;-69
2022/11/16 10:23:48;;;;;;;10.38;4.13;;;;;;;;;;5022966;28;20182;-69
2022/11/16 10:26:26;;;;;;;9.52;3.70;;;;;;;;;;5016639;28;20186;-69
2022/11/16 10:29:13;;;;;;;6.85;3.80;;;;;;;;;;5015036;28;20273;-69
2022/11/16 10:31:59;;;;;;;13.55;4.05;;;;;;;;;;5007696;28;20285;-69
2022/11/16 10:34:29;;;;;;;10.15;3.92;;;;;;;;;;5035418;28;20350;-69
2022/11/16 10:37:02;;;;;;;11.95;3.88;;;;;;;;;;5026727;28;20214;-69
2022/11/16 10:39:29;;;;;;;8.75;3.50;;;;;;;;;;5027066;28;20227;-69
2022/11/16 10:42:00;;;;;;;11.20;3.78;;;;;;;;;;5028190;28;20669;-69
2022/11/16 10:44:46;;;;;;;11.20;3.85;;;;;;;;;;5013545;28;20468;-69
2022/11/16 10:47:34;;;;;;;8.25;3.25;;;;;;;;;;5016358;28;20556;-69
2022/11/16 10:50:14;;;;;;;11.82;3.65;;;;;;;;;;5019205;28;20178;-69
2022/11/16 10:52:39;;;;;;;13.23;3.50;;;;;;;;;;5013715;28;20651;-69
2022/11/16 10:55:05;;;;;;;9.00;2.85;;;;;;;;;;5018200;28;20302;-69
2022/11/16 10:57:59;;;;;;;14.95;3.20;;;;;;;;;;5015878;28;20186;-69
2022/11/16 11:00:33;;;;;;;10.48;3.08;;;;;;;;;;5026145;28;20527;-69
2022/11/16 11:02:59;;;;;;;9.60;2.85;;;;;;;;;;5015670;28;20201;-69
2022/11/16 11:05:25;;;;;;;11.75;2.90;;;;;;;;;;5010544;28;20178;-69
2022/11/16 11:08:01;;;;;;;8.68;2.60;;;;;;;;;;5014508;28;20244;-69
2022/11/16 11:10:37;;;;;;;13.15;2.88;;;;;;;;;;5011979;28;20178;-68
2022/11/16 11:13:09;;;;;;;8.23;2.80;;;;;;;;;;5013666;28;20622;-69
2022/11/16 11:15:34;;;;;;;11.27;2.90;;;;;;;;;;5011914;28;20201;-69
2022/11/16 11:18:21;;;;;;;15.32;3.05;;;;;;;;;;5014807;28;20183;-68
2022/11/16 11:20:50;;;;;;;9.05;2.75;;;;;;;;;;5009855;28;20336;-68
2022/11/16 11:23:23;;;;;;;10.25;2.95;;;;;;;;;;5011544;28;20182;-68
2022/11/16 11:25:48;;;;;;;9.57;2.58;;;;;;;;;;5013382;28;20187;-70
2022/11/16 11:28:23;;;;;;;16.27;2.85;;;;;;;;;;5017835;28;20269;-69
2022/11/16 11:31:02;;;;;;;11.40;2.30;;;;;;;;;;5009416;28;20186;-69
2022/11/16 11:33:37;;;;;;;11.70;2.35;;;;;;;;;;5012984;28;20272;-69
2022/11/16 11:36:24;;;;;;;8.57;2.40;;;;;;;;;;5011577;28;20304;-68
2022/11/16 11:39:07;;;;;;;13.57;2.72;;;;;;;;;;5010768;28;20220;-69
2022/11/16 11:41:38;;;;;;;13.52;2.75;;;;;;;;;;5014689;28;20545;-68
2022/11/16 11:44:13;;;;;;;10.77;2.50;;;;;;;;;;5014373;28;20178;-69
2022/11/16 11:46:49;;;;;;;11.38;2.50;;;;;;;;;;5012827;28;20251;-69
2022/11/16 11:49:32;;;;;;;9.90;2.22;;;;;;;;;;5020913;28;20325;-68
2022/11/16 11:52:04;;;;;;;14.00;2.63;;;;;;;;;;5013008;28;20314;-69
2022/11/16 11:54:33;;;;;;;10.95;2.42;;;;;;;;;;5015361;28;20554;-69
2022/11/16 11:57:00;;;;;;;10.82;1.98;;;;;;;;;;5010726;28;20228;-68
2022/11/16 11:59:26;;;;;;;11.30;2.53;;;;;;;;;;5016988;28;20194;-68
2022/11/16 12:02:09;;;;;;;10.02;1.90;;;;;;;;;;5014309;28;20201;-68
2022/11/16 12:04:59;;;;;;;11.18;2.22;;;;;;;;;;5009899;28;20320;-69
2022/11/16 12:07:48;;;;;;;13.38;2.30;;;;;;;;;;5024366;28;20182;-68
2022/11/16 12:10:45;;;;;;;11.63;2.38;;;;;;;;;;5019971;28;20213;-68
2022/11/16 12:13:33;;;;;;;8.43;1.95;;;;;;;;;;5010343;28;20309;-69
2022/11/16 12:16:27;;;;;;;15.35;2.97;;;;;;;;;;5009377;28;20307;-69
2022/11/16 12:19:07;;;;;;;10.32;1.92;;;;;;;;;;5009791;28;20178;-69
2022/11/16 12:21:54;;;;;;;17.42;3.10;;;;;;;;;;5019091;28;20201;-69
2022/11/16 12:24:22;;;;;;;9.05;2.60;;;;;;;;;;5011413;28;20185;-69
2022/11/16 12:26:59;;;;;;;10.88;2.28;;;;;;;;;;5007535;28;20209;-69
2022/11/16 12:29:31;;;;;;;16.10;3.05;;;;;;;;;;5012112;28;20547;-69
2022/11/16 12:32:09;;;;;;;12.48;2.47;;;;;;;;;;5010525;28;20260;-69
2022/11/16 12:34:55;;;;;;;13.85;2.72;;;;;;;;;;5016173;28;20231;-69
2022/11/16 12:37:36;;;;;;;7.43;1.95;;;;;;;;;;5016687;28;20198;-69
2022/11/16 12:40:13;;;;;;;11.48;2.00;;;;;;;;;;5016477;28;20308;-69
2022/11/16 12:42:48;;;;;;;13.98;2.25;;;;;;;;;;5018452;28;20644;-69
2022/11/16 12:45:18;;;;;;;17.08;2.08;;;;;;;;;;5028902;28;20184;-69
2022/11/16 12:48:09;;;;;;;10.05;1.77;;;;;;;;;;5029116;28;20210;-69
2022/11/16 12:50:56;;;;;;;7.20;1.90;;;;;;;;;;5021826;28;20193;-69
2022/11/16 12:53:24;;;;;;;10.32;1.77;;;;;;;;;;5011145;28;20614;-69
2022/11/16 12:56:19;;;;;;;8.02;2.03;;;;;;;;;;5019814;28;20513;-69
2022/11/16 12:59:11;;;;;;;13.38;2.03;;;;;;;;;;5021224;28;20190;-69
2022/11/16 13:02:00;;;;;;;10.48;1.70;;;;;;;;;;5010550;28;20182;-69
2022/11/16 13:04:32;;;;;;;11.35;1.50;;;;;;;;;;5021832;28;20198;-70
2022/11/16 13:07:25;;;;;;;9.55;1.45;;;;;;;;;;5025900;28;20201;-69
2022/11/16 13:10:05;;;;;;;9.02;1.40;;;;;;;;;;5022214;28;20178;-69
2022/11/16 13:12:31;;;;;;;11.68;1.63;;;;;;;;;;5008131;28;20178;-69
2022/11/16 13:15:00;;;;;;;8.02;2.00;;;;;;;;;;5013813;28;20249;-69
2022/11/16 13:17:28;;;;;;;9.65;1.50;;;;;;;;;;5022166;28;20245;-69
2022/11/16 13:20:38;;;;;;;9.88;1.80;;;;;;;;;;5021189;28;20182;-69
2022/11/16 13:23:20;;;;;;;9.27;1.60;;;;;;;;;;5012466;28;20171;-69
2022/11/16 13:25:56;;;;;;;13.02;1.90;;;;;;;;;;5008921;28;20514;-69
2022/11/16 13:28:44;;;;;;;8.27;1.30;;;;;;;;;;5008993;28;20178;-68
2022/11/16 13:31:34;;;;;;;8.73;1.85;;;;;;;;;;5016279;28;20190;-69
2022/11/16 13:34:16;;;;;;;9.07;1.45;;;;;;;;;;5021074;28;20226;-69
2022/11/16 13:36:44;;;;;;;13.40;1.42;;;;;;;;;;5017486;28;20320;-69
2022/11/16 13:39:18;;;;;;;10.73;1.73;;;;;;;;;;5016077;28;20638;-69
2022/11/16 13:41:46;;;;;;;7.00;1.85;;;;;;;;;;5012690;28;20185;-69
2022/11/16 13:44:13;;;;;;;14.25;1.55;;;;;;;;;;5016405;28;20372;-69
2022/11/16 13:46:48;;;;;;;7.60;1.45;;;;;;;;;;5015013;28;20681;-69
2022/11/16 13:49:48;;;;;;;7.05;1.20;;;;;;;;;;5014082;28;20193;-69
2022/11/16 13:52:13;;;;;;;8.02;1.85;;;;;;;;;;5019383;28;20182;-69
2022/11/16 13:54:41;;;;;;;6.55;1.90;;;;;;;;;;5019094;28;20189;-69
2022/11/16 13:57:32;;;;;;;12.85;1.77;;;;;;;;;;5019868;28;20214;-69
2022/11/16 14:00:00;;;;;;;8.10;1.67;;;;;;;;;;5021060;28;20178;-69
2022/11/16 14:02:37;;;;;;;9.30;1.30;;;;;;;;;;5016475;28;20186;-69
2022/11/16 14:05:13;;;;;;;9.43;1.40;;;;;;;;;;5018431;28;20786;-69
2022/11/16 14:07:45;;;;;;;6.78;1.00;;;;;;;;;;5007940;28;20698;-69
2022/11/16 14:10:31;;;;;;;11.63;1.80;;;;;;;;;;5015506;28;20507;-69
2022/11/16 14:12:57;;;;;;;4.50;0.90;;;;;;;;;;5011525;28;20708;-69
2022/11/16 14:15:28;;;;;;;7.20;1.65;;;;;;;;;;5011380;28;20240;-69
2022/11/16 14:17:53;;;;;;;4.18;1.10;;;;;;;;;;5010715;28;20191;-69
2022/11/16 14:20:29;;;;;;;4.95;1.30;;;;;;;;;;5008899;28;20209;-69
2022/11/16 14:23:10;;;;;;;4.43;1.17;;;;;;;;;;5007731;28;20255;-69
2022/11/16 14:26:10;;;;;;;9.30;1.38;;;;;;;;;;5012871;28;20174;-69
2022/11/16 14:28:46;;;;;;;9.93;1.17;;;;;;;;;;5008880;28;20312;-69
2022/11/16 14:31:11;;;;;;;8.60;1.30;;;;;;;;;;5018536;28;20257;-69
2022/11/16 14:33:37;;;;;;;4.15;0.82;;;;;;;;;;5013072;28;20290;-69
2022/11/16 14:36:08;;;;;;;8.23;0.98;;;;;;;;;;5015610;28;20578;-69
2022/11/16 14:38:40;;;;;;;3.50;0.85;;;;;;;;;;5011056;28;20213;-69
2022/11/16 14:41:16;;;;;;;5.63;0.90;;;;;;;;;;5013965;28;20218;-69
2022/11/16 14:43:46;;;;;;;5.78;1.05;;;;;;;;;;5012690;28;20190;-69
2022/11/16 14:46:24;;;;;;;6.25;1.00;;;;;;;;;;5013254;28;20685;-69
2022/11/16 14:48:52;;;;;;;6.00;1.30;;;;;;;;;;5026546;28;20177;-68
2022/11/16 14:51:25;;;;;;;5.97;1.27;;;;;;;;;;5013241;28;20650;-68
2022/11/16 14:53:55;;;;;;;3.10;1.08;;;;;;;;;;5016938;28;20186;-69
2022/11/16 14:56:20;;;;;;;4.72;1.45;;;;;;;;;;5012407;28;20290;-68
2022/11/16 14:58:51;;;;;;;9.40;1.33;;;;;;;;;;5018765;28;20188;-68
2022/11/16 15:01:18;;;;;;;3.63;1.15;;;;;;;;;;5010848;28;20210;-69
2022/11/16 15:04:10;;;;;;;9.13;1.45;;;;;;;;;;5011946;28;20182;-69
2022/11/16 15:06:42;;;;;;;10.38;1.58;;;;;;;;;;5015526;28;20658;-69
2022/11/16 15:09:23;;;;;;;5.47;1.30;;;;;;;;;;5013720;28;20190;-69
2022/11/16 15:14:38;;;;;;;8.45;1.90;;;;;;;;;;5012659;28;20229;-69
2022/11/16 15:17:05;;;;;;;6.05;1.27;;;;;;;;;;5011890;28;20211;-69
2022/11/16 15:19:31;;;;;;;9.80;1.35;;;;;;;;;;5012799;28;20190;-69
2022/11/16 15:21:58;;;;;;;6.70;1.80;;;;;;;;;;5010519;28;20282;-69
2022/11/16 15:24:29;;;;;;;5.15;1.35;;;;;;;;;;4326708;28;10000738;-69
2022/11/16 15:27:05;;;;;;;7.63;1.80;;;;;;;;;;5012762;28;20205;-69
2022/11/16 15:29:30;;;;;;;8.27;1.50;;;;;;;;;;5026580;28;20221;-69
2022/11/16 15:31:56;;;;;;;5.88;1.67;;;;;;;;;;5023762;28;20222;-69